createdAt,value
2023-05-10T00:00:09.662Z,954.89
2023-05-10T00:00:40.240Z,954.89
2023-05-10T00:01:11.154Z,954.79
2023-05-10T00:01:42.425Z,954.79
2023-05-10T00:02:13.232Z,954.99
2023-05-10T00:02:44.533Z,954.99
2023-05-10T00:03:15.504Z,954.99
2023-05-10T00:03:46.518Z,954.99
2023-05-10T00:04:17.044Z,954.89
2023-05-10T00:04:48.434Z,954.89
2023-05-10T00:05:19.628Z,954.89
2023-05-10T00:05:50.495Z,954.89
2023-05-10T00:06:21.481Z,954.89
2023-05-10T00:06:52.056Z,954.89
2023-05-10T00:07:23.439Z,954.99
2023-05-10T00:07:54.083Z,954.99
2023-05-10T00:08:25.220Z,954.99
2023-05-10T00:08:56.238Z,954.99
2023-05-10T00:09:27.002Z,954.99
2023-05-10T00:09:58.346Z,954.99
2023-05-10T00:10:29.331Z,954.79
2023-05-10T00:11:00.204Z,954.79
2023-05-10T00:11:31.505Z,954.89
2023-05-10T00:12:02.399Z,954.89
2023-05-10T00:12:33.781Z,954.89
2023-05-10T00:13:04.434Z,954.59
2023-05-10T00:13:35.068Z,954.59
2023-05-10T00:14:06.333Z,954.69
2023-05-10T00:14:37.086Z,954.69
2023-05-10T00:15:08.557Z,954.89
2023-05-10T00:15:39.127Z,954.89
2023-05-10T00:16:10.000Z,954.89
2023-05-10T00:16:41.402Z,954.89
2023-05-10T00:17:12.033Z,954.79
2023-05-10T00:17:43.118Z,954.79
2023-05-10T00:18:14.378Z,954.89
2023-05-10T00:18:45.886Z,954.89
2023-05-10T00:19:16.168Z,954.79
2023-05-10T00:19:47.319Z,954.79
2023-05-10T00:20:19.102Z,954.89
2023-05-10T00:20:49.206Z,954.89
2023-05-10T00:21:20.283Z,954.99
2023-05-10T00:21:51.519Z,954.99
2023-05-10T00:22:22.070Z,954.79
2023-05-10T00:22:54.199Z,954.79
2023-05-10T00:23:24.396Z,954.89
2023-05-10T00:23:55.420Z,954.89
2023-05-10T00:24:26.161Z,954.79
2023-05-10T00:24:58.875Z,954.79
2023-05-10T00:25:28.599Z,954.89
2023-05-10T00:25:59.158Z,954.89
2023-05-10T00:26:30.318Z,954.89
2023-05-10T00:27:01.137Z,954.89
2023-05-10T00:27:32.162Z,954.69
2023-05-10T00:28:03.664Z,954.69
2023-05-10T00:28:34.610Z,954.79
2023-05-10T00:29:05.236Z,954.69
2023-05-10T00:29:36.300Z,954.69
2023-05-10T00:30:07.906Z,954.89
2023-05-10T00:30:38.123Z,954.89
2023-05-10T00:31:09.056Z,954.69
2023-05-10T00:31:40.250Z,954.69
2023-05-10T00:32:11.215Z,954.59
2023-05-10T00:32:42.301Z,954.59
2023-05-10T00:33:13.276Z,954.89
2023-05-10T00:33:44.603Z,954.89
2023-05-10T00:34:15.370Z,954.99
2023-05-10T00:34:46.121Z,954.99
2023-05-10T00:35:17.406Z,954.89
2023-05-10T00:35:48.074Z,954.89
2023-05-10T00:36:19.375Z,954.89
2023-05-10T00:36:50.172Z,954.89
2023-05-10T00:37:21.421Z,954.79
2023-05-10T00:37:52.114Z,954.79
2023-05-10T00:38:23.260Z,954.79
2023-05-10T00:38:54.364Z,954.79
2023-05-10T00:39:25.338Z,954.89
2023-05-10T00:39:56.325Z,954.89
2023-05-10T00:40:27.631Z,954.59
2023-05-10T00:40:58.428Z,954.59
2023-05-10T00:41:29.308Z,954.59
2023-05-10T00:42:00.183Z,954.59
2023-05-10T00:42:31.391Z,954.59
2023-05-10T00:43:02.159Z,954.59
2023-05-10T00:43:33.242Z,954.69
2023-05-10T00:44:04.362Z,954.69
2023-05-10T00:44:35.579Z,954.69
2023-05-10T00:45:07.339Z,954.79
2023-05-10T00:45:37.485Z,954.79
2023-05-10T00:46:08.577Z,954.69
2023-05-10T00:46:39.515Z,954.69
2023-05-10T00:47:10.310Z,954.89
2023-05-10T00:47:41.849Z,954.89
2023-05-10T00:48:12.543Z,954.69
2023-05-10T00:48:43.438Z,954.69
2023-05-10T00:49:14.556Z,954.79
2023-05-10T00:50:17.177Z,954.79
2023-05-10T00:50:47.589Z,954.79
2023-05-10T00:51:18.286Z,954.69
2023-05-10T00:51:49.285Z,954.69
2023-05-10T00:52:20.596Z,954.99
2023-05-10T00:52:51.439Z,954.99
2023-05-10T00:53:22.228Z,954.69
2023-05-10T00:53:53.306Z,954.69
2023-05-10T00:54:26.701Z,954.89
2023-05-10T00:54:55.227Z,954.89
2023-05-10T00:55:28.578Z,954.79
2023-05-10T00:55:57.181Z,954.79
2023-05-10T00:56:28.804Z,954.59
2023-05-10T00:56:59.400Z,954.59
2023-05-10T00:57:30.591Z,954.79
2023-05-10T00:58:01.938Z,954.79
2023-05-10T00:58:32.302Z,954.79
2023-05-10T00:59:03.447Z,954.79
2023-05-10T00:59:34.596Z,954.79
2023-05-10T01:00:06.245Z,954.59
2023-05-10T01:00:36.260Z,954.59
2023-05-10T01:01:07.262Z,954.89
2023-05-10T01:01:38.532Z,954.89
2023-05-10T01:02:09.273Z,954.79
2023-05-10T01:02:40.268Z,954.79
2023-05-10T01:03:11.382Z,954.69
2023-05-10T01:03:42.409Z,954.69
2023-05-10T01:04:13.607Z,954.69
2023-05-10T01:04:44.335Z,954.69
2023-05-10T01:05:16.098Z,954.89
2023-05-10T01:05:46.260Z,954.89
2023-05-10T01:06:17.501Z,954.59
2023-05-10T01:06:48.643Z,954.59
2023-05-10T01:07:19.278Z,954.89
2023-05-10T01:07:50.685Z,954.89
2023-05-10T01:08:21.797Z,954.99
2023-05-10T01:08:52.323Z,954.99
2023-05-10T01:09:23.281Z,954.69
2023-05-10T01:09:54.462Z,954.69
2023-05-10T01:10:25.974Z,954.59
2023-05-10T01:10:56.458Z,954.59
2023-05-10T01:11:27.527Z,954.69
2023-05-10T01:11:58.511Z,954.69
2023-05-10T01:12:29.721Z,954.79
2023-05-10T01:13:00.277Z,954.79
2023-05-10T01:13:31.796Z,954.49
2023-05-10T01:14:02.558Z,954.49
2023-05-10T01:14:33.362Z,954.69
2023-05-10T01:15:04.790Z,954.69
2023-05-10T01:15:35.533Z,954.69
2023-05-10T01:16:06.604Z,954.49
2023-05-10T01:16:37.292Z,954.49
2023-05-10T01:17:08.417Z,954.89
2023-05-10T01:17:39.564Z,954.89
2023-05-10T01:18:10.638Z,954.89
2023-05-10T01:18:41.770Z,954.89
2023-05-10T01:19:12.245Z,955.10
2023-05-10T01:19:43.776Z,955.10
2023-05-10T01:20:15.156Z,954.89
2023-05-10T01:20:45.286Z,954.89
2023-05-10T01:21:16.383Z,954.89
2023-05-10T01:21:47.312Z,954.89
2023-05-10T01:22:18.529Z,954.89
2023-05-10T01:22:49.702Z,954.89
2023-05-10T01:23:20.566Z,954.89
2023-05-10T01:23:51.399Z,954.89
2023-05-10T01:24:22.367Z,954.79
2023-05-10T01:24:53.564Z,954.79
2023-05-10T01:25:24.806Z,954.89
2023-05-10T01:25:57.732Z,954.89
2023-05-10T01:26:26.563Z,955.10
2023-05-10T01:26:59.876Z,955.10
2023-05-10T01:27:28.471Z,954.59
2023-05-10T01:28:00.068Z,954.59
2023-05-10T01:28:30.524Z,954.69
2023-05-10T01:29:01.810Z,954.69
2023-05-10T01:29:32.708Z,954.89
2023-05-10T01:30:34.352Z,954.89
2023-05-10T01:31:05.828Z,954.89
2023-05-10T01:31:36.836Z,954.89
2023-05-10T01:32:07.320Z,954.79
2023-05-10T01:32:38.396Z,954.79
2023-05-10T01:33:09.403Z,954.89
2023-05-10T01:33:40.384Z,954.89
2023-05-10T01:34:11.364Z,954.69
2023-05-10T01:34:42.469Z,954.69
2023-05-10T01:35:14.284Z,954.79
2023-05-10T01:35:44.403Z,954.79
2023-05-10T01:36:15.849Z,954.79
2023-05-10T01:36:46.641Z,954.79
2023-05-10T01:37:17.809Z,954.69
2023-05-10T01:37:48.410Z,954.69
2023-05-10T01:38:19.369Z,954.69
2023-05-10T01:38:50.463Z,954.69
2023-05-10T01:39:21.559Z,954.89
2023-05-10T01:39:52.341Z,954.89
2023-05-10T01:40:24.294Z,954.79
2023-05-10T01:40:54.329Z,954.79
2023-05-10T01:41:25.400Z,954.69
2023-05-10T01:41:56.809Z,954.69
2023-05-10T01:42:27.606Z,954.69
2023-05-10T01:42:58.488Z,954.69
2023-05-10T01:43:29.756Z,954.69
2023-05-10T01:44:00.485Z,954.69
2023-05-10T01:44:31.483Z,954.89
2023-05-10T01:45:03.191Z,954.89
2023-05-10T01:45:33.383Z,954.99
2023-05-10T01:46:04.635Z,954.79
2023-05-10T01:46:35.470Z,954.79
2023-05-10T01:47:06.768Z,954.79
2023-05-10T01:47:37.752Z,954.79
2023-05-10T01:48:08.524Z,954.99
2023-05-10T01:48:39.584Z,954.99
2023-05-10T01:49:10.390Z,954.89
2023-05-10T01:49:41.440Z,954.89
2023-05-10T01:50:12.698Z,954.79
2023-05-10T01:50:43.383Z,954.79
2023-05-10T01:51:14.409Z,954.89
2023-05-10T01:51:46.079Z,954.89
2023-05-10T01:52:16.395Z,954.99
2023-05-10T01:52:47.867Z,954.99
2023-05-10T01:53:18.484Z,954.89
2023-05-10T01:53:49.662Z,954.89
2023-05-10T01:54:20.820Z,954.89
2023-05-10T01:54:51.686Z,954.89
2023-05-10T01:55:22.741Z,954.99
2023-05-10T01:55:53.405Z,954.99
2023-05-10T01:56:24.681Z,954.79
2023-05-10T01:56:55.498Z,954.79
2023-05-10T01:57:28.521Z,955.10
2023-05-10T01:57:57.652Z,955.10
2023-05-10T01:58:29.722Z,955.10
2023-05-10T01:58:59.786Z,955.10
2023-05-10T01:59:31.002Z,954.99
2023-05-10T02:00:02.472Z,954.99
2023-05-10T02:00:32.838Z,954.79
2023-05-10T02:01:03.793Z,954.79
2023-05-10T02:01:34.817Z,955.10
2023-05-10T02:02:05.607Z,954.89
2023-05-10T02:02:36.772Z,954.89
2023-05-10T02:03:07.508Z,954.99
2023-05-10T02:03:38.506Z,954.99
2023-05-10T02:04:09.541Z,954.89
2023-05-10T02:04:40.445Z,954.89
2023-05-10T02:05:11.741Z,954.99
2023-05-10T02:05:43.006Z,954.99
2023-05-10T02:06:13.495Z,954.89
2023-05-10T02:06:44.524Z,954.89
2023-05-10T02:07:15.696Z,954.99
2023-05-10T02:07:46.482Z,954.99
2023-05-10T02:08:17.794Z,955.10
2023-05-10T02:08:48.789Z,955.10
2023-05-10T02:09:19.715Z,954.89
2023-05-10T02:09:50.763Z,954.89
2023-05-10T02:10:22.086Z,955.10
2023-05-10T02:10:52.487Z,955.10
2023-05-10T02:11:23.473Z,955.20
2023-05-10T02:11:54.518Z,955.20
2023-05-10T02:12:25.904Z,954.99
2023-05-10T02:12:56.503Z,954.99
2023-05-10T02:13:27.515Z,955.40
2023-05-10T02:13:58.546Z,955.40
2023-05-10T02:14:29.804Z,954.99
2023-05-10T02:15:01.361Z,954.99
2023-05-10T02:15:31.720Z,955.30
2023-05-10T02:16:03.132Z,955.30
2023-05-10T02:16:33.596Z,955.10
2023-05-10T02:17:04.654Z,955.30
2023-05-10T02:17:35.872Z,955.30
2023-05-10T02:18:06.553Z,955.10
2023-05-10T02:18:37.739Z,955.10
2023-05-10T02:19:08.719Z,955.40
2023-05-10T02:19:39.888Z,955.40
2023-05-10T02:20:11.258Z,955.20
2023-05-10T02:20:41.955Z,955.20
2023-05-10T02:21:13.081Z,955.10
2023-05-10T02:21:43.914Z,955.10
2023-05-10T02:22:14.513Z,955.20
2023-05-10T02:22:46.223Z,955.20
2023-05-10T02:23:16.551Z,954.99
2023-05-10T02:23:47.569Z,954.99
2023-05-10T02:24:18.540Z,955.20
2023-05-10T02:24:49.794Z,955.20
2023-05-10T02:25:21.271Z,955.10
2023-05-10T02:25:51.584Z,955.10
2023-05-10T02:26:22.640Z,955.10
2023-05-10T02:26:53.525Z,955.10
2023-05-10T02:27:24.560Z,955.10
2023-05-10T02:27:55.800Z,955.10
2023-05-10T02:28:26.914Z,955.20
2023-05-10T02:28:59.914Z,955.20
2023-05-10T02:29:28.806Z,955.20
2023-05-10T02:30:02.644Z,955.20
2023-05-10T02:30:30.634Z,955.10
2023-05-10T02:31:01.522Z,955.10
2023-05-10T02:31:33.010Z,955.30
2023-05-10T02:32:04.071Z,955.30
2023-05-10T02:32:34.908Z,955.30
2023-05-10T02:33:05.613Z,955.20
2023-05-10T02:33:36.570Z,955.20
2023-05-10T02:34:07.597Z,955.40
2023-05-10T02:34:38.949Z,955.40
2023-05-10T02:35:09.954Z,955.20
2023-05-10T02:35:40.479Z,955.20
2023-05-10T02:36:11.922Z,955.20
2023-05-10T02:36:42.792Z,955.20
2023-05-10T02:37:13.572Z,955.20
2023-05-10T02:37:44.838Z,955.20
2023-05-10T02:38:15.858Z,955.30
2023-05-10T02:38:46.755Z,955.30
2023-05-10T02:39:17.561Z,955.20
2023-05-10T02:39:48.571Z,955.20
2023-05-10T02:40:20.076Z,955.30
2023-05-10T02:40:50.899Z,955.30
2023-05-10T02:41:21.800Z,955.20
2023-05-10T02:41:52.624Z,955.20
2023-05-10T02:42:23.563Z,955.10
2023-05-10T02:42:54.959Z,955.10
2023-05-10T02:43:25.884Z,955.40
2023-05-10T02:43:56.638Z,955.40
2023-05-10T02:44:27.960Z,955.40
2023-05-10T02:44:58.881Z,955.40
2023-05-10T02:45:30.513Z,955.50
2023-05-10T02:46:00.801Z,955.50
2023-05-10T02:46:32.763Z,955.40
2023-05-10T02:47:02.679Z,955.40
2023-05-10T02:47:33.989Z,955.20
2023-05-10T02:48:04.737Z,955.20
2023-05-10T02:48:35.630Z,955.20
2023-05-10T02:49:06.749Z,955.20
2023-05-10T02:49:37.981Z,955.20
2023-05-10T02:50:09.127Z,955.30
2023-05-10T02:50:39.588Z,955.30
2023-05-10T02:51:10.935Z,955.20
2023-05-10T02:51:41.681Z,955.20
2023-05-10T02:52:12.763Z,955.60
2023-05-10T02:52:43.724Z,955.60
2023-05-10T02:53:14.930Z,955.20
2023-05-10T02:53:45.667Z,955.20
2023-05-10T02:54:16.886Z,955.30
2023-05-10T02:54:47.948Z,955.30
2023-05-10T02:55:19.395Z,955.40
2023-05-10T02:55:49.943Z,955.40
2023-05-10T02:56:21.030Z,955.30
2023-05-10T02:56:51.900Z,955.30
2023-05-10T02:57:23.445Z,955.30
2023-05-10T02:57:53.661Z,955.30
2023-05-10T02:58:25.261Z,955.50
2023-05-10T02:58:55.667Z,955.50
2023-05-10T02:59:26.643Z,955.20
2023-05-10T02:59:57.661Z,955.20
2023-05-10T03:00:30.804Z,955.40
2023-05-10T03:01:00.315Z,955.40
2023-05-10T03:01:33.180Z,955.60
2023-05-10T03:02:02.578Z,955.60
2023-05-10T03:02:33.543Z,955.30
2023-05-10T03:03:03.640Z,955.30
2023-05-10T03:03:36.547Z,955.50
2023-05-10T03:04:06.405Z,955.60
2023-05-10T03:04:37.118Z,955.60
2023-05-10T03:05:08.004Z,955.40
2023-05-10T03:05:38.982Z,955.40
2023-05-10T03:06:10.660Z,955.40
2023-05-10T03:06:41.128Z,955.40
2023-05-10T03:07:11.931Z,955.50
2023-05-10T03:07:43.278Z,955.50
2023-05-10T03:08:14.244Z,955.40
2023-05-10T03:08:44.688Z,955.40
2023-05-10T03:09:15.862Z,955.60
2023-05-10T03:09:47.072Z,955.60
2023-05-10T03:10:18.405Z,955.40
2023-05-10T03:10:48.954Z,955.40
2023-05-10T03:11:20.562Z,955.40
2023-05-10T03:11:51.100Z,955.40
2023-05-10T03:12:21.691Z,955.60
2023-05-10T03:12:52.819Z,955.60
2023-05-10T03:13:23.866Z,955.40
2023-05-10T03:13:54.725Z,955.40
2023-05-10T03:14:25.891Z,955.70
2023-05-10T03:14:56.891Z,955.70
2023-05-10T03:15:28.741Z,955.70
2023-05-10T03:15:59.122Z,955.70
2023-05-10T03:16:30.365Z,955.60
2023-05-10T03:17:00.708Z,955.60
2023-05-10T03:17:32.220Z,955.70
2023-05-10T03:18:03.235Z,955.70
2023-05-10T03:18:34.312Z,955.60
2023-05-10T03:19:05.186Z,955.60
2023-05-10T03:19:36.219Z,955.60
2023-05-10T03:20:07.384Z,955.50
2023-05-10T03:20:37.761Z,955.50
2023-05-10T03:21:09.134Z,955.81
2023-05-10T03:21:40.093Z,955.81
2023-05-10T03:22:10.928Z,955.50
2023-05-10T03:22:42.564Z,955.50
2023-05-10T03:23:13.434Z,955.50
2023-05-10T03:23:43.685Z,955.50
2023-05-10T03:24:14.782Z,955.81
2023-05-10T03:24:46.244Z,955.81
2023-05-10T03:25:17.750Z,955.40
2023-05-10T03:25:47.716Z,955.40
2023-05-10T03:26:18.985Z,955.60
2023-05-10T03:26:49.689Z,955.60
2023-05-10T03:27:20.771Z,955.50
2023-05-10T03:27:52.000Z,955.50
2023-05-10T03:28:23.369Z,955.70
2023-05-10T03:28:54.137Z,955.70
2023-05-10T03:29:25.005Z,955.60
2023-05-10T03:29:56.005Z,955.60
2023-05-10T03:30:27.679Z,955.81
2023-05-10T03:30:57.930Z,955.81
2023-05-10T03:31:29.106Z,955.81
2023-05-10T03:32:01.240Z,955.81
2023-05-10T03:32:31.196Z,955.81
2023-05-10T03:33:03.042Z,955.81
2023-05-10T03:33:33.362Z,955.60
2023-05-10T03:34:04.150Z,955.60
2023-05-10T03:34:35.100Z,955.91
2023-05-10T03:35:06.456Z,955.60
2023-05-10T03:35:36.687Z,955.60
2023-05-10T03:36:08.048Z,955.91
2023-05-10T03:36:38.794Z,955.91
2023-05-10T03:37:09.983Z,956.01
2023-05-10T03:37:40.991Z,956.01
2023-05-10T03:38:12.087Z,955.81
2023-05-10T03:38:43.505Z,955.81
2023-05-10T03:39:13.692Z,955.70
2023-05-10T03:39:45.182Z,955.70
2023-05-10T03:40:16.284Z,955.91
2023-05-10T03:40:46.720Z,955.91
2023-05-10T03:41:17.895Z,955.81
2023-05-10T03:41:48.808Z,955.81
2023-05-10T03:42:20.066Z,955.60
2023-05-10T03:42:51.361Z,955.60
2023-05-10T03:43:22.083Z,956.01
2023-05-10T03:43:53.105Z,956.01
2023-05-10T03:44:24.542Z,955.81
2023-05-10T03:44:56.037Z,955.81
2023-05-10T03:45:26.890Z,955.70
2023-05-10T03:45:56.964Z,955.70
2023-05-10T03:46:27.879Z,955.91
2023-05-10T03:46:59.225Z,955.91
2023-05-10T03:47:30.508Z,955.81
2023-05-10T03:48:01.429Z,955.81
2023-05-10T03:48:32.495Z,956.11
2023-05-10T03:49:03.065Z,956.11
2023-05-10T03:49:35.118Z,955.91
2023-05-10T03:50:05.924Z,955.91
2023-05-10T03:50:36.720Z,955.91
2023-05-10T03:51:06.897Z,955.91
2023-05-10T03:51:37.813Z,955.91
2023-05-10T03:52:09.364Z,955.91
2023-05-10T03:52:40.242Z,955.91
2023-05-10T03:53:11.133Z,955.91
2023-05-10T03:53:41.867Z,955.91
2023-05-10T03:54:13.149Z,955.70
2023-05-10T03:54:43.972Z,955.70
2023-05-10T03:55:15.242Z,955.81
2023-05-10T03:55:45.968Z,955.81
2023-05-10T03:56:17.205Z,955.91
2023-05-10T03:56:48.219Z,955.91
2023-05-10T03:57:19.495Z,955.91
2023-05-10T03:57:50.275Z,955.91
2023-05-10T03:58:21.266Z,956.01
2023-05-10T03:58:52.283Z,956.01
2023-05-10T03:59:22.868Z,955.91
2023-05-10T03:59:53.805Z,955.91
2023-05-10T04:00:25.631Z,955.91
2023-05-10T04:00:56.223Z,955.91
2023-05-10T04:01:26.825Z,956.01
2023-05-10T04:01:58.055Z,956.01
2023-05-10T04:02:29.141Z,955.81
2023-05-10T04:03:00.157Z,955.81
2023-05-10T04:03:32.969Z,956.01
2023-05-10T04:04:02.349Z,956.01
2023-05-10T04:04:34.584Z,956.01
2023-05-10T04:05:04.406Z,956.01
2023-05-10T04:05:35.144Z,956.11
2023-05-10T04:06:06.086Z,955.91
2023-05-10T04:06:37.203Z,955.91
2023-05-10T04:07:08.440Z,956.01
2023-05-10T04:07:39.400Z,956.01
2023-05-10T04:08:10.194Z,955.91
2023-05-10T04:08:40.991Z,955.91
2023-05-10T04:09:12.664Z,955.91
2023-05-10T04:09:42.846Z,955.91
2023-05-10T04:10:14.843Z,955.70
2023-05-10T04:10:44.912Z,955.70
2023-05-10T04:11:15.907Z,956.11
2023-05-10T04:11:47.144Z,956.11
2023-05-10T04:12:17.977Z,955.81
2023-05-10T04:12:48.965Z,955.81
2023-05-10T04:13:20.597Z,955.81
2023-05-10T04:13:51.092Z,955.81
2023-05-10T04:14:21.968Z,956.01
2023-05-10T04:14:53.304Z,956.01
2023-05-10T04:15:24.672Z,955.91
2023-05-10T04:15:55.442Z,955.91
2023-05-10T04:16:26.097Z,956.01
2023-05-10T04:16:57.432Z,956.01
2023-05-10T04:17:28.003Z,956.01
2023-05-10T04:17:59.407Z,956.01
2023-05-10T04:18:30.262Z,956.21
2023-05-10T04:19:01.026Z,956.21
2023-05-10T04:19:32.075Z,956.01
2023-05-10T04:20:03.245Z,956.01
2023-05-10T04:20:34.942Z,956.11
2023-05-10T04:21:05.065Z,955.91
2023-05-10T04:21:36.613Z,955.91
2023-05-10T04:22:06.970Z,956.01
2023-05-10T04:22:38.720Z,956.01
2023-05-10T04:23:09.366Z,956.21
2023-05-10T04:23:40.526Z,956.21
2023-05-10T04:24:12.706Z,955.91
2023-05-10T04:24:42.086Z,955.91
2023-05-10T04:25:13.751Z,956.11
2023-05-10T04:25:44.703Z,956.11
2023-05-10T04:26:15.681Z,956.01
2023-05-10T04:26:46.768Z,956.01
2023-05-10T04:27:17.529Z,956.01
2023-05-10T04:27:48.542Z,956.01
2023-05-10T04:28:19.540Z,956.21
2023-05-10T04:28:49.983Z,956.21
2023-05-10T04:29:21.104Z,955.91
2023-05-10T04:29:52.429Z,955.91
2023-05-10T04:30:24.309Z,956.01
2023-05-10T04:30:54.099Z,956.01
2023-05-10T04:31:25.055Z,956.01
2023-05-10T04:31:56.282Z,956.01
2023-05-10T04:32:27.783Z,956.01
2023-05-10T04:32:58.084Z,956.01
2023-05-10T04:33:29.249Z,956.11
2023-05-10T04:34:00.181Z,956.11
2023-05-10T04:34:31.446Z,956.21
2023-05-10T04:35:05.102Z,956.21
2023-05-10T04:35:33.359Z,956.11
2023-05-10T04:36:04.251Z,956.11
2023-05-10T04:36:35.491Z,955.91
2023-05-10T04:37:07.684Z,956.01
2023-05-10T04:37:37.329Z,956.01
2023-05-10T04:38:08.745Z,955.91
2023-05-10T04:38:39.512Z,955.91
2023-05-10T04:39:10.758Z,956.01
2023-05-10T04:39:42.518Z,956.01
2023-05-10T04:40:12.372Z,956.11
2023-05-10T04:40:42.988Z,956.11
2023-05-10T04:41:14.050Z,956.31
2023-05-10T04:41:45.009Z,956.31
2023-05-10T04:42:16.203Z,956.31
2023-05-10T04:42:47.325Z,956.31
2023-05-10T04:43:18.311Z,956.31
2023-05-10T04:43:49.320Z,956.31
2023-05-10T04:44:20.047Z,956.21
2023-05-10T04:44:51.177Z,956.21
2023-05-10T04:45:22.836Z,956.38
2023-05-10T04:45:53.273Z,956.38
2023-05-10T04:46:24.248Z,956.11
2023-05-10T04:46:55.479Z,956.11
2023-05-10T04:47:26.089Z,956.11
2023-05-10T04:47:57.314Z,956.11
2023-05-10T04:48:28.244Z,956.31
2023-05-10T04:48:59.491Z,956.31
2023-05-10T04:49:30.435Z,956.21
2023-05-10T04:50:01.519Z,956.21
2023-05-10T04:50:32.492Z,956.31
2023-05-10T04:51:03.510Z,956.31
2023-05-10T04:51:34.252Z,956.38
2023-05-10T04:52:05.137Z,956.31
2023-05-10T04:52:36.243Z,956.31
2023-05-10T04:53:07.221Z,956.11
2023-05-10T04:53:38.234Z,956.11
2023-05-10T04:54:09.681Z,956.31
2023-05-10T04:54:40.338Z,956.31
2023-05-10T04:55:11.407Z,956.21
2023-05-10T04:55:42.400Z,956.21
2023-05-10T04:56:13.109Z,956.21
2023-05-10T04:56:44.360Z,956.21
2023-05-10T04:57:15.499Z,956.48
2023-05-10T04:57:46.385Z,956.48
2023-05-10T04:58:17.397Z,956.31
2023-05-10T04:58:48.631Z,956.31
2023-05-10T04:59:19.753Z,956.21
2023-05-10T04:59:50.631Z,956.21
2023-05-10T05:00:22.128Z,956.21
2023-05-10T05:00:52.071Z,956.21
2023-05-10T05:01:23.155Z,956.38
2023-05-10T05:01:54.383Z,956.38
2023-05-10T05:02:25.347Z,956.21
2023-05-10T05:02:57.476Z,956.21
2023-05-10T05:03:27.440Z,956.21
2023-05-10T05:03:58.462Z,956.21
2023-05-10T05:04:29.133Z,956.38
2023-05-10T05:05:00.182Z,956.38
2023-05-10T05:05:32.279Z,956.31
2023-05-10T05:06:02.048Z,956.31
2023-05-10T05:06:35.321Z,956.31
2023-05-10T05:07:04.411Z,956.31
2023-05-10T05:07:37.517Z,956.31
2023-05-10T05:08:06.883Z,956.31
2023-05-10T05:08:37.870Z,956.31
2023-05-10T05:09:08.142Z,956.11
2023-05-10T05:09:39.553Z,956.11
2023-05-10T05:10:10.828Z,956.31
2023-05-10T05:10:41.476Z,956.31
2023-05-10T05:11:12.082Z,956.21
2023-05-10T05:11:43.302Z,956.21
2023-05-10T05:12:14.459Z,956.38
2023-05-10T05:12:45.291Z,956.38
2023-05-10T05:13:16.629Z,956.21
2023-05-10T05:13:47.313Z,956.21
2023-05-10T05:14:18.442Z,956.21
2023-05-10T05:14:49.675Z,956.21
2023-05-10T05:15:20.678Z,956.38
2023-05-10T05:15:51.998Z,956.38
2023-05-10T05:16:22.955Z,956.31
2023-05-10T05:16:53.666Z,956.31
2023-05-10T05:17:24.542Z,956.11
2023-05-10T05:17:55.440Z,956.11
2023-05-10T05:18:26.183Z,956.31
2023-05-10T05:18:57.341Z,956.31
2023-05-10T05:19:28.412Z,956.38
2023-05-10T05:19:59.418Z,956.38
2023-05-10T05:20:30.963Z,956.21
2023-05-10T05:21:01.413Z,956.21
2023-05-10T05:21:32.436Z,956.48
2023-05-10T05:22:03.408Z,956.48
2023-05-10T05:22:34.703Z,956.59
2023-05-10T05:23:05.602Z,956.31
2023-05-10T05:23:36.628Z,956.31
2023-05-10T05:24:07.611Z,956.48
2023-05-10T05:24:38.527Z,956.48
2023-05-10T05:25:10.084Z,956.48
2023-05-10T05:25:40.503Z,956.48
2023-05-10T05:26:11.661Z,956.31
2023-05-10T05:26:42.445Z,956.31
2023-05-10T05:27:13.203Z,956.31
2023-05-10T05:27:44.664Z,956.31
2023-05-10T05:28:15.123Z,956.38
2023-05-10T05:28:46.165Z,956.38
2023-05-10T05:29:17.358Z,956.38
2023-05-10T05:29:48.641Z,956.38
2023-05-10T05:30:20.048Z,956.31
2023-05-10T05:30:50.181Z,956.31
2023-05-10T05:31:21.625Z,956.21
2023-05-10T05:31:54.758Z,956.21
2023-05-10T05:32:23.900Z,956.48
2023-05-10T05:32:54.512Z,956.48
2023-05-10T05:33:25.596Z,956.38
2023-05-10T05:33:56.380Z,956.38
2023-05-10T05:34:27.500Z,956.59
2023-05-10T05:34:58.493Z,956.59
2023-05-10T05:35:29.861Z,956.38
2023-05-10T05:36:00.132Z,956.38
2023-05-10T05:36:31.253Z,956.38
2023-05-10T05:37:02.242Z,956.38
2023-05-10T05:37:33.533Z,956.48
2023-05-10T05:38:06.860Z,956.59
2023-05-10T05:38:35.424Z,956.59
2023-05-10T05:39:07.750Z,956.48
2023-05-10T05:39:37.284Z,956.48
2023-05-10T05:40:09.527Z,956.69
2023-05-10T05:40:39.489Z,956.69
2023-05-10T05:41:10.261Z,956.48
2023-05-10T05:41:41.458Z,956.48
2023-05-10T05:42:12.201Z,956.59
2023-05-10T05:42:43.688Z,956.59
2023-05-10T05:43:14.713Z,956.38
2023-05-10T05:43:45.628Z,956.38
2023-05-10T05:44:16.602Z,956.48
2023-05-10T05:44:47.377Z,956.48
2023-05-10T05:45:19.812Z,956.48
2023-05-10T05:45:49.667Z,956.48
2023-05-10T05:46:20.692Z,956.48
2023-05-10T05:46:51.642Z,956.48
2023-05-10T05:47:22.625Z,956.38
2023-05-10T05:47:53.400Z,956.38
2023-05-10T05:48:24.263Z,956.38
2023-05-10T05:48:56.291Z,956.38
2023-05-10T05:49:26.212Z,956.48
2023-05-10T05:49:57.786Z,956.48
2023-05-10T05:50:29.240Z,956.48
2023-05-10T05:50:59.244Z,956.48
2023-05-10T05:51:30.515Z,956.48
2023-05-10T05:52:01.721Z,956.48
2023-05-10T05:52:32.930Z,956.59
2023-05-10T05:53:04.015Z,956.59
2023-05-10T05:53:34.401Z,956.59
2023-05-10T05:54:05.436Z,956.59
2023-05-10T05:54:36.345Z,956.59
2023-05-10T05:55:07.478Z,956.48
2023-05-10T05:55:38.644Z,956.48
2023-05-10T05:56:09.721Z,956.59
2023-05-10T05:56:40.604Z,956.59
2023-05-10T05:57:11.722Z,956.79
2023-05-10T05:57:42.796Z,956.79
2023-05-10T05:58:13.387Z,956.59
2023-05-10T05:58:44.897Z,956.59
2023-05-10T05:59:16.169Z,956.69
2023-05-10T05:59:46.300Z,956.69
2023-05-10T06:00:18.701Z,956.48
2023-05-10T06:00:48.533Z,956.48
2023-05-10T06:01:19.628Z,956.69
2023-05-10T06:01:50.516Z,956.69
2023-05-10T06:02:21.919Z,956.89
2023-05-10T06:02:53.157Z,956.89
2023-05-10T06:03:24.174Z,956.79
2023-05-10T06:03:54.353Z,956.79
2023-05-10T06:04:25.402Z,956.69
2023-05-10T06:04:56.510Z,956.69
2023-05-10T06:05:28.109Z,956.99
2023-05-10T06:05:58.405Z,956.99
2023-05-10T06:06:29.888Z,956.89
2023-05-10T06:07:00.662Z,956.89
2023-05-10T06:07:31.313Z,956.69
2023-05-10T06:08:02.981Z,956.69
2023-05-10T06:08:33.644Z,956.69
2023-05-10T06:09:04.787Z,956.69
2023-05-10T06:09:36.354Z,956.79
2023-05-10T06:10:07.005Z,956.69
2023-05-10T06:10:39.952Z,956.69
2023-05-10T06:11:08.724Z,956.59
2023-05-10T06:11:40.884Z,956.59
2023-05-10T06:12:10.351Z,956.59
2023-05-10T06:12:41.903Z,956.59
2023-05-10T06:13:12.734Z,956.69
2023-05-10T06:13:43.528Z,956.69
2023-05-10T06:14:14.676Z,956.69
2023-05-10T06:14:45.704Z,956.69
2023-05-10T06:15:17.328Z,956.59
2023-05-10T06:15:47.582Z,956.59
2023-05-10T06:16:18.851Z,956.69
2023-05-10T06:16:49.838Z,956.69
2023-05-10T06:17:20.822Z,956.79
2023-05-10T06:17:51.829Z,956.79
2023-05-10T06:18:22.728Z,956.79
2023-05-10T06:18:54.052Z,956.79
2023-05-10T06:19:24.747Z,956.79
2023-05-10T06:19:55.824Z,956.79
2023-05-10T06:20:26.744Z,956.69
2023-05-10T06:20:57.583Z,956.69
2023-05-10T06:21:28.660Z,956.89
2023-05-10T06:21:59.889Z,956.89
2023-05-10T06:22:31.117Z,956.69
2023-05-10T06:23:01.849Z,956.69
2023-05-10T06:23:32.902Z,956.79
2023-05-10T06:24:03.742Z,956.79
2023-05-10T06:24:34.282Z,956.79
2023-05-10T06:25:05.764Z,956.99
2023-05-10T06:25:36.528Z,956.99
2023-05-10T06:26:07.526Z,956.89
2023-05-10T06:26:38.390Z,956.89
2023-05-10T06:27:10.051Z,956.79
2023-05-10T06:27:40.940Z,956.79